Regent, North Dakota
Current Conditions -  °F | °C
As of 12:53 PM on Tuesday 21 Oct 2014 (Local Time) from KHEI Reporting Station
Clear Clear  
Wind Chill: 76°   Ceiling: Unl
Heat Index: 76°   Visibility: 10mi
Dew Point: 43°   Wind: 14mph
Humidity: 31%   Direction: 160°SSE
Pressure: 29.7"   Gusts: NA
Location:  46.42°N, 102.56°W
Report Text: KHEI 211853Z AUTO 16012KT 10SM CLR 24/06 A2970 RMK AO2 SLP048 T02440061
Loading
Personal Weather Stations






























Interactive Weather Map
Tropical Storm Tracking
New forecast layout! Learn more

10-Day Weather Forecast

Advertisements
Track Severe Weather on mobile